Weather

Current Metar report

KALM 210055Z AUTO 25019G27KT 10SM CLR 29/M06 A2985 RMK AO2


Metar history is on Flightaware.

KALM AWOS Info
Phone Number: 575-439-4112
Freq: 127.825 MHz

KALM Weather Links

Soaring Forecasts Links